Time;durP1;ratioP1;P1;durP2;ratioP2;P2;SDS_P1;SDS_P2;PMS_P1;PMS_P2;Temp;Humidity;BMP_temperature;BMP_pressure;BME280_temperature;BME280_humidity;BME280_pressure;Samples;Min_cycle;Max_cycle;Signal;HPM_P1;HPM_P2
2023/03/28 00:00:43;;;;;;;;;;;;;;;20.24;48.20;101145.28;4959262;28;2959;-55
2023/03/28 00:03:13;;;;;;;;;;;;;;;20.24;48.11;101139.53;4961299;28;3902;-50
2023/03/28 00:05:39;;;;;;;;;;;;;;;20.24;48.00;101151.03;4965748;28;2955;-53
2023/03/28 00:08:06;;;;;;;;;;;;;;;20.25;47.96;101141.03;4962740;28;2910;-50
2023/03/28 00:10:33;;;;;;;;;;;;;;;20.30;48.08;101145.59;4962218;28;2745;-50
2023/03/28 00:12:59;;;;;;;;;;;;;;;20.31;48.14;101144.19;4967638;28;3146;-50
2023/03/28 00:15:27;;;;;;;;;;;;;;;20.33;48.25;101152.19;4960037;28;2941;-50
2023/03/28 00:17:53;;;;;;;;;;;;;;;20.32;48.31;101145.72;4964844;28;3001;-49
2023/03/28 00:20:20;;;;;;;;;;;;;;;20.33;48.42;101157.94;4966076;28;2772;-51
2023/03/28 00:22:46;;;;;;;;;;;;;;;20.32;48.39;101162.19;4964340;28;3107;-49
2023/03/28 00:25:13;;;;;;;;;;;;;;;20.32;48.42;101165.84;4966034;28;3093;-51
2023/03/28 00:27:39;;;;;;;;;;;;;;;20.30;48.32;101162.84;4964842;28;3212;-51
2023/03/28 00:30:06;;;;;;;;;;;;;;;20.29;48.24;101165.00;4963000;28;3362;-49
2023/03/28 00:32:33;;;;;;;;;;;;;;;20.29;48.34;101167.09;4946879;28;2766;-51
2023/03/28 00:34:59;;;;;;;;;;;;;;;20.27;48.18;101169.88;4946786;28;2910;-49
2023/03/28 00:37:26;;;;;;;;;;;;;;;20.26;48.02;101177.03;4963708;28;2915;-49
2023/03/28 00:39:52;;;;;;;;;;;;;;;20.27;48.02;101179.25;4963532;28;2568;-52
2023/03/28 00:42:20;;;;;;;;;;;;;;;20.28;48.17;101180.00;4947548;28;3313;-53
2023/03/28 00:44:47;;;;;;;;;;;;;;;20.27;48.19;101184.25;4960810;28;3009;-52
2023/03/28 00:47:20;;;;;;;;;;;;;;;20.28;48.37;101185.75;4962586;28;2854;-49
2023/03/28 00:49:48;;;;;;;;;;;;;;;20.29;48.38;101192.97;4961204;28;2976;-52
2023/03/28 00:52:14;;;;;;;;;;;;;;;20.26;48.47;101200.03;4960790;28;2694;-50
2023/03/28 00:54:41;;;;;;;;;;;;;;;20.23;48.42;101195.56;4956491;28;3041;-50
2023/03/28 00:57:07;;;;;;;;;;;;;;;20.24;48.61;101197.03;4957552;28;2894;-50
2023/03/28 00:59:34;;;;;;;;;;;;;;;20.22;48.55;101199.81;4962185;28;3001;-49
2023/03/28 01:02:00;;;;;;;;;;;;;;;20.21;48.62;101192.56;4949207;28;2999;-49
2023/03/28 01:04:32;;;;;;;;;;;;;;;20.21;48.52;101201.94;4945059;28;3057;-52
2023/03/28 01:06:58;;;;;;;;;;;;;;;20.21;48.57;101209.81;4944725;28;2982;-51
2023/03/28 01:09:25;;;;;;;;;;;;;;;20.20;48.40;101214.06;4945556;28;3208;-52
2023/03/28 01:11:52;;;;;;;;;;;;;;;20.19;48.39;101213.34;4945688;28;3022;-51
2023/03/28 01:14:19;;;;;;;;;;;;;;;20.21;48.36;101227.09;4946096;28;3053;-55
2023/03/28 01:16:48;;;;;;;;;;;;;;;20.21;48.34;101221.34;4961071;28;2951;-51
2023/03/28 01:19:37;;;;;;;;;;;;;;;20.22;48.64;101222.81;4961769;28;2932;-54
2023/03/28 01:22:09;;;;;;;;;;;;;;;20.22;48.69;101222.81;4928510;28;2986;-50
2023/03/28 01:24:38;;;;;;;;;;;;;;;20.23;48.65;101227.19;4945620;28;3006;-51
2023/03/28 01:27:09;;;;;;;;;;;;;;;20.21;48.78;101235.72;4946665;28;2968;-47
2023/03/28 01:29:36;;;;;;;;;;;;;;;20.26;48.66;101234.53;4958799;28;2898;-48
2023/03/28 01:32:16;;;;;;;;;;;;;;;20.22;48.72;101240.06;4944923;28;2851;-53
2023/03/28 01:35:19;;;;;;;;;;;;;;;20.20;48.70;101243.59;4946596;28;2951;-50
2023/03/28 01:37:46;;;;;;;;;;;;;;;20.19;48.54;101249.97;4963717;28;3030;-51
2023/03/28 01:40:23;;;;;;;;;;;;;;;20.19;48.61;101252.84;4959187;28;3227;-50
2023/03/28 01:43:08;;;;;;;;;;;;;;;20.17;48.39;101258.50;4946461;28;2903;-50
2023/03/28 01:45:38;;;;;;;;;;;;;;;20.17;48.56;101264.97;4952133;28;3084;-51
2023/03/28 01:48:11;;;;;;;;;;;;;;;20.17;48.45;101272.88;4961881;28;2908;-52
2023/03/28 01:50:42;;;;;;;;;;;;;;;20.16;48.45;101280.00;4943917;28;2725;-50
2023/03/28 01:53:11;;;;;;;;;;;;;;;20.15;48.59;101270.63;4947408;28;3028;-49
2023/03/28 01:55:38;;;;;;;;;;;;;;;20.16;48.44;101259.84;4947024;28;2662;-52
2023/03/28 01:58:09;;;;;;;;;;;;;;;20.17;48.61;101258.50;4932106;28;2950;-50
2023/03/28 02:00:44;;;;;;;;;;;;;;;20.19;48.59;101275.84;4959066;28;2975;-47
2023/03/28 02:03:27;;;;;;;;;;;;;;;20.19;48.68;101281.59;4932269;28;2970;-49
2023/03/28 02:05:56;;;;;;;;;;;;;;;20.21;48.88;101278.84;4944993;28;2671;-50
2023/03/28 02:08:25;;;;;;;;;;;;;;;20.21;48.88;101275.97;4947205;28;2790;-48
2023/03/28 02:11:11;;;;;;;;;;;;;;;20.21;48.71;101275.97;4946223;28;2965;-50
2023/03/28 02:13:57;;;;;;;;;;;;;;;20.21;48.74;101287.47;4964281;28;2956;-49
2023/03/28 02:16:53;;;;;;;;;;;;;;;20.20;48.92;101300.34;4927973;28;2976;-50
2023/03/28 02:19:57;;;;;;;;;;;;;;;20.22;48.85;101298.31;4912973;29;2844;-51
2023/03/28 02:22:50;;;;;;;;;;;;;;;20.23;48.61;101301.97;4946135;28;3009;-51
2023/03/28 02:25:44;;;;;;;;;;;;;;;20.20;48.70;101306.84;4943731;28;2729;-47
2023/03/28 02:28:31;;;;;;;;;;;;;;;20.17;48.71;101304.50;4958428;28;2956;-52
2023/03/28 02:31:14;;;;;;;;;;;;;;;20.15;48.57;101313.00;4963950;28;2769;-54
2023/03/28 02:33:41;;;;;;;;;;;;;;;20.17;48.78;101318.88;4943918;28;3037;-52
2023/03/28 02:36:11;;;;;;;;;;;;;;;20.17;48.67;101313.88;4960052;28;2691;-48
2023/03/28 02:38:44;;;;;;;;;;;;;;;20.17;48.49;101322.50;4946192;28;2990;-48
2023/03/28 02:41:32;;;;;;;;;;;;;;;20.18;48.89;101314.59;4963606;28;2894;-50
2023/03/28 02:44:02;;;;;;;;;;;;;;;20.19;48.88;101313.25;4955895;28;3167;-51
2023/03/28 02:46:30;;;;;;;;;;;;;;;20.19;49.00;101319.72;4958857;28;2916;-48
2023/03/28 02:49:04;;;;;;;;;;;;;;;20.21;49.01;101324.84;4945580;28;2798;-48
2023/03/28 02:51:47;;;;;;;;;;;;;;;20.21;49.08;101328.47;4944920;28;3191;-50
2023/03/28 02:54:16;;;;;;;;;;;;;;;20.21;48.94;101324.84;4948468;28;2897;-49
2023/03/28 02:56:52;;;;;;;;;;;;;;;20.22;49.02;101337.84;4960570;28;2892;-53
2023/03/28 02:59:41;;;;;;;;;;;;;;;20.22;48.88;101343.59;4959007;28;3020;-52
2023/03/28 03:02:07;;;;;;;;;;;;;;;20.22;48.84;101338.56;4960915;28;2777;-52
2023/03/28 03:04:33;;;;;;;;;;;;;;;20.23;48.69;101354.47;4943862;28;2923;-48
2023/03/28 03:07:01;;;;;;;;;;;;;;;20.22;48.87;101344.31;4956179;28;3010;-48
2023/03/28 03:09:30;;;;;;;;;;;;;;;20.23;48.87;101350.84;4944202;28;2867;-51
2023/03/28 03:11:56;;;;;;;;;;;;;;;20.22;48.99;101357.97;4962273;28;2765;-51
2023/03/28 03:14:22;;;;;;;;;;;;;;;20.22;49.00;101363.72;4946704;28;2837;-51
2023/03/28 03:16:51;;;;;;;;;;;;;;;20.22;48.91;101366.59;4945171;28;2030;-48
2023/03/28 03:19:18;;;;;;;;;;;;;;;20.20;48.84;101372.22;4963175;28;2692;-48
2023/03/28 03:21:45;;;;;;;;;;;;;;;20.21;48.65;101370.88;4963549;28;2752;-50
2023/03/28 03:24:13;;;;;;;;;;;;;;;20.22;48.64;101378.09;4945630;28;2847;-49
2023/03/28 03:26:41;;;;;;;;;;;;;;;20.19;48.74;101382.25;4958767;28;3024;-49
2023/03/28 03:29:13;;;;;;;;;;;;;;;20.19;48.72;101380.13;4946832;28;3001;-49
2023/03/28 03:31:40;;;;;;;;;;;;;;;20.20;48.60;101384.50;4931096;28;2910;-52
2023/03/28 03:34:25;;;;;;;;;;;;;;;20.20;48.66;101387.38;4961306;28;3346;-53
2023/03/28 03:36:55;;;;;;;;;;;;;;;20.20;48.73;101392.34;4961976;28;2988;-51
2023/03/28 03:39:22;;;;;;;;;;;;;;;20.21;48.68;101385.25;4961788;28;3468;-52
2023/03/28 03:41:48;;;;;;;;;;;;;;;20.20;48.76;101396.00;4939049;28;3025;-49
2023/03/28 03:44:14;;;;;;;;;;;;;;;20.22;48.71;101401.84;4935145;28;3019;-50
2023/03/28 03:46:41;;;;;;;;;;;;;;;20.21;48.48;101406.09;4961839;28;2888;-48
2023/03/28 03:49:08;;;;;;;;;;;;;;;20.21;48.79;101411.13;4944231;28;3046;-50
2023/03/28 03:51:34;;;;;;;;;;;;;;;20.22;48.79;101406.84;4960406;28;2894;-49
2023/03/28 03:54:00;;;;;;;;;;;;;;;20.21;48.76;101405.38;4944445;28;2427;-48
2023/03/28 03:56:32;;;;;;;;;;;;;;;20.22;48.68;101406.84;4959460;28;3516;-49
2023/03/28 03:58:59;;;;;;;;;;;;;;;20.22;48.83;101419.09;4953999;28;3470;-47
2023/03/28 04:01:28;;;;;;;;;;;;;;;20.22;48.88;101424.09;4958685;28;2900;-48
2023/03/28 04:04:02;;;;;;;;;;;;;;;20.23;48.93;101425.63;4943135;28;2948;-50
2023/03/28 04:06:41;;;;;;;;;;;;;;;20.24;48.77;101421.34;4960077;28;3002;-50
2023/03/28 04:09:08;;;;;;;;;;;;;;;20.24;48.81;101427.09;4960459;28;2911;-52
2023/03/28 04:11:49;;;;;;;;;;;;;;;20.24;48.65;101432.84;4944711;28;3030;-51
2023/03/28 04:14:15;;;;;;;;;;;;;;;20.24;48.76;101438.59;4938781;28;2969;-47
2023/03/28 04:16:43;;;;;;;;;;;;;;;20.23;48.68;101449.38;4943794;28;3958;-48
2023/03/28 04:19:12;;;;;;;;;;;;;;;20.24;48.86;101455.84;4961317;28;2657;-50
2023/03/28 04:21:41;;;;;;;;;;;;;;;20.21;48.71;101457.13;4937673;28;2915;-51
2023/03/28 04:24:08;;;;;;;;;;;;;;;20.22;48.60;101464.38;4942475;28;3065;-48
2023/03/28 04:26:42;;;;;;;;;;;;;;;20.22;48.44;101458.63;4953382;28;2587;-50
2023/03/28 04:29:11;;;;;;;;;;;;;;;20.21;48.55;101463.63;4944277;28;2886;-48
2023/03/28 04:31:40;;;;;;;;;;;;;;;20.20;48.36;101472.88;4947929;28;2955;-50
2023/03/28 04:34:28;;;;;;;;;;;;;;;20.20;48.43;101478.63;4954824;28;3097;-51
2023/03/28 04:37:01;;;;;;;;;;;;;;;20.21;48.47;101477.25;4932161;28;3031;-50
2023/03/28 04:39:32;;;;;;;;;;;;;;;20.20;48.55;101485.16;4943598;28;3875;-51
2023/03/28 04:42:07;;;;;;;;;;;;;;;20.22;48.09;101490.25;4964729;28;2695;-51
2023/03/28 04:44:51;;;;;;;;;;;;;;;20.21;48.44;101497.41;4961509;28;3137;-52
2023/03/28 04:47:19;;;;;;;;;;;;;;;20.22;48.59;101498.88;4958197;28;3053;-51
2023/03/28 04:49:47;;;;;;;;;;;;;;;20.21;48.52;101503.88;4945366;28;2934;-51
2023/03/28 04:52:14;;;;;;;;;;;;;;;20.21;48.41;101508.91;4960310;28;3258;-49
2023/03/28 04:54:43;;;;;;;;;;;;;;;20.20;48.46;101518.88;4946518;28;2925;-54
2023/03/28 04:57:13;;;;;;;;;;;;;;;20.20;48.37;101519.66;4964709;28;2853;-49
2023/03/28 04:59:42;;;;;;;;;;;;;;;20.20;48.40;101525.41;4943885;28;2943;-50
2023/03/28 05:02:15;;;;;;;;;;;;;;;20.21;48.35;101531.91;4956158;28;3122;-49
2023/03/28 05:04:48;;;;;;;;;;;;;;;20.22;48.28;101524.75;4940446;28;2975;-52
2023/03/28 05:07:14;;;;;;;;;;;;;;;20.16;48.31;101535.91;4939725;28;3026;-56
2023/03/28 05:09:41;;;;;;;;;;;;;;;20.28;48.29;101531.63;4943566;28;3006;-53
2023/03/28 05:12:07;;;;;;;;;;;;;;;20.30;48.47;101542.50;4955455;28;3084;-74
2023/03/28 05:14:51;;;;;;;;;;;;;;;20.31;48.43;101541.09;4933007;28;3038;-72
2023/03/28 05:17:18;;;;;;;;;;;;;;;20.30;48.72;101556.88;4945132;28;2982;-71
2023/03/28 05:20:15;;;;;;;;;;;;;;;20.28;49.24;101566.13;4937130;28;2945;-73
2023/03/28 05:22:48;;;;;;;;;;;;;;;20.28;49.32;101559.63;4941985;28;2974;-73
2023/03/28 05:25:15;;;;;;;;;;;;;;;20.27;48.97;101563.88;4945268;28;2932;-73
2023/03/28 05:27:41;;;;;;;;;;;;;;;20.29;48.79;101570.50;4949245;28;3040;-71
2023/03/28 05:30:08;;;;;;;;;;;;;;;20.21;48.92;101577.91;4935234;28;2880;-72
2023/03/28 05:32:36;;;;;;;;;;;;;;;20.51;51.51;101573.91;4940016;28;4091;-68
2023/03/28 05:35:04;;;;;;;;;;;;;;;20.66;51.00;101583.38;4936507;28;2957;-65
2023/03/28 05:37:30;;;;;;;;;;;;;;;20.85;50.79;101590.91;4955322;28;4550;-70
2023/03/28 05:43:52;;;;;;;;;;;;;;;21.01;49.80;101596.84;4946949;28;2981;-69
2023/03/28 05:46:34;;;;;;;;;;;;;;;21.05;49.82;101605.69;4937106;28;3598;-65
2023/03/28 05:49:00;;;;;;;;;;;;;;;21.09;49.54;101603.78;4954607;28;2828;-65
2023/03/28 05:51:27;;;;;;;;;;;;;;;21.11;49.62;101609.66;4958735;28;2804;-65
2023/03/28 05:53:53;;;;;;;;;;;;;;;21.11;49.32;101606.03;4960500;28;3163;-65
2023/03/28 05:56:19;;;;;;;;;;;;;;;21.11;48.96;101620.44;4940314;28;2164;-67
2023/03/28 05:58:47;;;;;;;;;;;;;;;21.12;48.78;101619.06;4962622;28;2884;-69
2023/03/28 06:01:16;;;;;;;;;;;;;;;21.13;48.62;101626.31;4953999;28;2888;-68
2023/03/28 06:03:48;;;;;;;;;;;;;;;21.21;48.64;101635.41;4963748;28;2931;-71
2023/03/28 06:06:16;;;;;;;;;;;;;;;21.24;48.32;101627.63;4940817;28;4620;-71
2023/03/28 06:08:43;;;;;;;;;;;;;;;21.27;48.98;101629.94;4942115;28;2892;-71
2023/03/28 06:11:10;;;;;;;;;;;;;;;21.29;48.33;101629.31;4945549;28;2647;-71
2023/03/28 06:14:05;;;;;;;;;;;;;;;21.34;48.28;101634.66;4957666;28;2927;-73
2023/03/28 06:16:33;;;;;;;;;;;;;;;21.34;48.62;101634.66;4962830;28;2053;-74
2023/03/28 06:18:59;;;;;;;;;;;;;;;21.31;48.61;101633.06;4945258;28;2844;-73
2023/03/28 06:21:47;;;;;;;;;;;;;;;21.29;48.59;101632.94;4942892;28;3004;-73
2023/03/28 06:24:13;;;;;;;;;;;;;;;21.31;48.66;101644.59;4953556;28;2287;-73
2023/03/28 06:26:40;;;;;;;;;;;;;;;21.45;49.24;101643.91;4948655;28;2734;-68
2023/03/28 06:29:10;;;;;;;;;;;;;;;21.55;48.51;101653.09;4949289;28;1831;-69
2023/03/28 06:31:40;;;;;;;;;;;;;;;21.63;48.03;101647.78;4961357;28;3137;-68
2023/03/28 06:34:06;;;;;;;;;;;;;;;21.64;48.10;101655.00;4948847;28;1963;-69
2023/03/28 06:36:41;;;;;;;;;;;;;;;21.64;46.79;101665.81;4960597;28;2993;-69
2023/03/28 06:39:08;;;;;;;;;;;;;;;21.53;46.51;101662.38;4945959;28;4464;-69
2023/03/28 06:41:34;;;;;;;;;;;;;;;21.22;45.14;101665.69;4963299;28;2230;-73
2023/03/28 06:44:02;;;;;;;;;;;;;;;20.99;43.82;101668.72;4948273;28;2263;-68
2023/03/28 06:46:54;;;;;;;;;;;;;;;20.61;43.67;101676.59;4953960;28;1829;-67
2023/03/28 06:49:21;;;;;;;;;;;;;;;19.93;41.65;101674.69;4958346;28;3123;-69
2023/03/28 06:52:06;;;;;;;;;;;;;;;20.30;40.97;101686.31;4954785;28;2941;-76
2023/03/28 06:54:33;;;;;;;;;;;;;;;20.66;39.99;101686.97;4940365;28;2952;-72
2023/03/28 06:57:00;;;;;;;;;;;;;;;20.87;39.62;101692.53;4963581;28;2326;-66
2023/03/28 06:59:26;;;;;;;;;;;;;;;21.11;39.28;101692.44;4961878;28;2325;-69
2023/03/28 07:01:57;;;;;;;;;;;;;;;21.22;39.07;101696.63;4959356;28;3107;-68
2023/03/28 07:04:29;;;;;;;;;;;;;;;21.21;38.93;101701.66;4947800;28;3108;-67
2023/03/28 07:06:55;;;;;;;;;;;;;;;21.40;39.04;101708.44;4942223;28;3171;-66
2023/03/28 07:09:21;;;;;;;;;;;;;;;21.42;38.84;101705.69;4959184;28;2995;-66
2023/03/28 07:11:54;;;;;;;;;;;;;;;21.31;38.73;101704.34;4953486;28;2985;-64
2023/03/28 07:14:21;;;;;;;;;;;;;;;21.29;38.46;101707.09;4958373;28;3152;-64
2023/03/28 07:16:48;;;;;;;;;;;;;;;21.27;38.49;101704.84;4944725;28;3119;-65
2023/03/28 07:19:14;;;;;;;;;;;;;;;21.20;37.70;101713.81;4962386;28;3549;-70
2023/03/28 07:21:44;;;;;;;;;;;;;;;20.91;37.73;101710.06;4940062;28;2967;-70
2023/03/28 07:24:11;;;;;;;;;;;;;;;20.44;37.83;101718.78;4955568;28;3405;-68
2023/03/28 07:26:45;;;;;;;;;;;;;;;20.71;38.44;101714.63;4943923;28;3107;-70
2023/03/28 07:29:12;;;;;;;;;;;;;;;20.91;39.22;101720.81;4942775;28;2906;-70
2023/03/28 07:31:38;;;;;;;;;;;;;;;20.99;39.47;101723.41;4959992;28;3003;-70
2023/03/28 07:34:05;;;;;;;;;;;;;;;21.05;39.63;101723.75;4960860;28;3062;-68
2023/03/28 07:36:32;;;;;;;;;;;;;;;21.08;39.98;101725.38;4942424;28;2846;-66
2023/03/28 07:39:07;;;;;;;;;;;;;;;21.09;40.20;101729.75;4942681;28;2971;-68
2023/03/28 07:41:34;;;;;;;;;;;;;;;21.46;40.74;101732.59;4940272;28;2951;-65
2023/03/28 07:44:00;;;;;;;;;;;;;;;21.65;40.06;101728.59;4940708;28;3119;-65
2023/03/28 07:46:27;;;;;;;;;;;;;;;21.70;39.94;101733.19;4942730;28;3049;-67
2023/03/28 07:48:55;;;;;;;;;;;;;;;21.66;39.79;101738.72;4952974;28;3207;-68
2023/03/28 07:51:22;;;;;;;;;;;;;;;21.58;39.82;101732.53;4957838;28;3186;-68
2023/03/28 07:53:48;;;;;;;;;;;;;;;21.70;40.03;101741.84;4941852;28;2853;-68
2023/03/28 07:56:15;;;;;;;;;;;;;;;21.25;39.63;101747.19;4955944;28;2988;-72
2023/03/28 07:59:03;;;;;;;;;;;;;;;20.17;35.20;101750.97;4933047;28;2962;-72
2023/03/28 08:01:30;;;;;;;;;;;;;;;20.02;34.22;101751.44;4936198;28;3397;-70
2023/03/28 08:04:00;;;;;;;;;;;;;;;20.28;34.33;101749.47;4960603;28;2941;-72
2023/03/28 08:06:37;;;;;;;;;;;;;;;20.42;35.34;101753.19;4949781;28;3222;-68
2023/03/28 08:09:07;;;;;;;;;;;;;;;20.23;36.08;101753.47;4946033;28;2496;-69
2023/03/28 08:11:38;;;;;;;;;;;;;;;20.19;35.99;101764.72;4939721;28;3103;-70
2023/03/28 08:14:05;;;;;;;;;;;;;;;20.24;35.21;101760.72;4961940;28;2957;-70
2023/03/28 08:16:31;;;;;;;;;;;;;;;20.28;34.73;101755.97;4953826;28;3231;-70
2023/03/28 08:18:58;;;;;;;;;;;;;;;20.34;35.36;101769.19;4963235;28;2903;-70
2023/03/28 08:21:47;;;;;;;;;;;;;;;20.35;36.48;101764.97;4944475;28;2862;-70
2023/03/28 08:24:14;;;;;;;;;;;;;;;20.33;37.08;101774.22;4939254;28;3122;-70
2023/03/28 08:27:02;;;;;;;;;;;;;;;20.36;37.61;101770.06;4947757;28;3248;-71
2023/03/28 08:29:29;;;;;;;;;;;;;;;20.40;38.11;101773.19;4961049;28;3054;-68
2023/03/28 08:31:56;;;;;;;;;;;;;;;20.22;38.31;101769.22;4955020;28;3151;-68
2023/03/28 08:34:23;;;;;;;;;;;;;;;20.23;38.44;101770.72;4960542;28;3499;-69
2023/03/28 08:36:49;;;;;;;;;;;;;;;20.34;39.30;101769.97;4939048;28;3593;-77
2023/03/28 08:39:24;;;;;;;;;;;;;;;20.91;39.53;101776.28;4938565;28;3897;-67
2023/03/28 08:42:15;;;;;;;;;;;;;;;20.93;38.96;101776.38;4960402;28;3539;-64
2023/03/28 08:44:44;;;;;;;;;;;;;;;20.84;39.26;101767.88;4926767;28;3051;-66
2023/03/28 08:47:24;;;;;;;;;;;;;;;20.82;39.39;101777.19;4944581;28;3044;-68
2023/03/28 08:49:53;;;;;;;;;;;;;;;20.84;39.57;101780.16;4943860;28;3012;-65
2023/03/28 08:52:19;;;;;;;;;;;;;;;20.90;39.79;101788.41;4925179;28;2961;-64
2023/03/28 08:55:00;;;;;;;;;;;;;;;20.93;39.98;101782.13;4936676;28;5447;-66
2023/03/28 08:57:27;;;;;;;;;;;;;;;20.82;39.76;101794.44;4941294;28;3085;-70
2023/03/28 09:00:14;;;;;;;;;;;;;;;20.83;39.33;101795.19;4941724;28;2947;-64
2023/03/28 09:02:40;;;;;;;;;;;;;;;20.90;39.82;101799.94;4957488;28;4974;-63
2023/03/28 09:05:14;;;;;;;;;;;;;;;20.89;40.30;101799.19;4945031;28;3140;-62
2023/03/28 09:08:17;;;;;;;;;;;;;;;20.92;40.52;101803.69;4962823;28;2915;-66
2023/03/28 09:10:49;;;;;;;;;;;;;;;20.87;41.14;101813.47;4941683;28;2972;-67
2023/03/28 09:13:21;;;;;;;;;;;;;;;20.83;41.43;101813.22;4961932;28;2899;-67
2023/03/28 09:16:07;;;;;;;;;;;;;;;20.84;41.41;101811.81;4942469;28;2882;-67
2023/03/28 09:18:44;;;;;;;;;;;;;;;20.90;41.75;101812.19;4936519;28;3181;-68
2023/03/28 09:21:16;;;;;;;;;;;;;;;20.92;41.57;101820.94;4949911;28;3371;-67
2023/03/28 09:23:43;;;;;;;;;;;;;;;20.96;42.02;101808.94;4961206;28;3144;-67
2023/03/28 09:26:31;;;;;;;;;;;;;;;21.13;41.52;101819.28;4961989;28;2892;-65
2023/03/28 09:29:03;;;;;;;;;;;;;;;21.18;41.56;101823.13;4940699;28;3650;-64
2023/03/28 09:31:31;;;;;;;;;;;;;;;21.19;41.61;101824.63;4933785;28;2940;-63
2023/03/28 09:33:59;;;;;;;;;;;;;;;21.10;41.68;101823.41;4960593;28;3276;-62
2023/03/28 09:36:36;;;;;;;;;;;;;;;21.08;41.97;101821.16;4941937;28;3071;-65
2023/03/28 09:39:26;;;;;;;;;;;;;;;21.21;42.69;101837.03;4946285;28;3164;-65
2023/03/28 09:42:04;;;;;;;;;;;;;;;21.49;41.55;101829.31;4935213;28;2970;-61
2023/03/28 09:44:50;;;;;;;;;;;;;;;21.38;42.00;101835.84;4946851;28;2965;-66
2023/03/28 09:47:39;;;;;;;;;;;;;;;21.40;41.46;101844.63;4961481;28;2984;-66
2023/03/28 09:50:11;;;;;;;;;;;;;;;21.41;41.71;101837.47;4947660;28;3595;-66
2023/03/28 09:52:42;;;;;;;;;;;;;;;21.42;41.61;101841.13;4938294;28;5134;-70
2023/03/28 09:55:14;;;;;;;;;;;;;;;21.45;41.92;101846.34;4934198;28;3001;-70
2023/03/28 09:57:58;;;;;;;;;;;;;;;21.61;42.11;101840.78;4957179;28;3539;-69
2023/03/28 10:00:25;;;;;;;;;;;;;;;21.65;41.84;101846.03;4941447;28;2929;-66
2023/03/28 10:03:21;;;;;;;;;;;;;;;21.74;41.76;101857.38;4960889;28;5414;-64
2023/03/28 10:05:48;;;;;;;;;;;;;;;21.70;42.19;101842.72;4965773;28;3607;-65
2023/03/28 10:08:27;;;;;;;;;;;;;;;21.67;42.31;101852.66;4945333;28;5556;-65
2023/03/28 10:11:05;;;;;;;;;;;;;;;21.83;41.86;101843.41;4949043;28;4012;-64
2023/03/28 10:13:36;;;;;;;;;;;;;;;21.92;41.48;101856.88;4965046;28;3493;-63
2023/03/28 10:16:03;;;;;;;;;;;;;;;21.49;42.17;101845.84;4949492;28;3023;-66
2023/03/28 10:18:55;;;;;;;;;;;;;;;21.33;42.44;101852.13;4943362;28;3083;-66
2023/03/28 10:21:36;;;;;;;;;;;;;;;21.27;42.68;101853.91;4961231;28;5571;-66
2023/03/28 10:24:09;;;;;;;;;;;;;;;21.32;42.90;101850.63;4939133;28;5550;-63
2023/03/28 10:26:37;;;;;;;;;;;;;;;21.30;43.01;101846.88;4941554;28;3246;-72
2023/03/28 10:29:04;;;;;;;;;;;;;;;21.13;42.48;101842.31;4931415;28;3106;-65
2023/03/28 10:31:31;;;;;;;;;;;;;;;21.47;42.41;101848.63;4940127;28;3111;-63
2023/03/28 10:34:21;;;;;;;;;;;;;;;21.61;42.02;101851.56;4940737;28;3063;-66
2023/03/28 10:36:56;;;;;;;;;;;;;;;20.24;37.72;101852.75;4954862;28;3003;-64
2023/03/28 10:39:32;;;;;;;;;;;;;;;20.57;37.16;101849.03;4942745;28;2899;-68
2023/03/28 10:42:21;;;;;;;;;;;;;;;20.96;37.68;101851.34;4957082;28;2962;-67
2023/03/28 10:45:00;;;;;;;;;;;;;;;21.36;39.96;101846.50;4939932;28;3141;-64
2023/03/28 10:47:28;;;;;;;;;;;;;;;21.52;39.91;101856.09;4954458;28;3280;-65
2023/03/28 10:50:03;;;;;;;;;;;;;;;21.59;40.13;101860.09;4957153;28;3079;-65
2023/03/28 10:52:36;;;;;;;;;;;;;;;21.72;40.48;101857.25;4939817;28;3048;-63
2023/03/28 10:55:12;;;;;;;;;;;;;;;21.85;40.69;101860.81;4955311;28;3018;-66
2023/03/28 10:57:56;;;;;;;;;;;;;;;21.86;40.88;101865.22;4938262;28;3435;-69
2023/03/28 11:00:24;;;;;;;;;;;;;;;21.80;41.01;101856.22;4928009;28;3337;-74
2023/03/28 11:03:09;;;;;;;;;;;;;;;21.57;41.49;101848.44;4938444;28;3517;-71
2023/03/28 11:05:44;;;;;;;;;;;;;;;21.51;41.53;101860.38;4923725;28;3475;-64
2023/03/28 11:08:44;;;;;;;;;;;;;;;21.51;41.97;101860.38;4936885;28;2955;-65
2023/03/28 11:11:18;;;;;;;;;;;;;;;21.41;41.38;101874.19;4931161;28;5294;-63
2023/03/28 11:13:53;;;;;;;;;;;;;;;21.40;40.48;101864.03;4938607;28;3355;-63
2023/03/28 11:16:24;;;;;;;;;;;;;;;21.42;39.93;101869.94;4920815;28;3505;-62
2023/03/28 11:19:05;;;;;;;;;;;;;;;21.15;39.44;101867.59;4928102;28;3407;-64
2023/03/28 11:21:58;;;;;;;;;;;;;;;21.03;38.59;101877.03;4933602;28;4082;-65
2023/03/28 11:24:26;;;;;;;;;;;;;;;20.95;38.85;101872.91;4918431;28;3547;-62
2023/03/28 11:27:17;;;;;;;;;;;;;;;19.85;34.47;101870.41;4928853;28;2907;-65
2023/03/28 11:29:53;;;;;;;;;;;;;;;20.27;34.73;101881.03;4920603;28;3425;-64
2023/03/28 11:32:36;;;;;;;;;;;;;;;20.56;34.98;101876.28;4937698;28;3551;-64
2023/03/28 11:35:12;;;;;;;;;;;;;;;20.68;35.13;101874.94;4959593;28;3471;-66
2023/03/28 11:37:42;;;;;;;;;;;;;;;20.70;35.03;101882.94;4931693;28;3500;-65
2023/03/28 11:40:22;;;;;;;;;;;;;;;20.78;35.04;101880.56;4955126;28;3385;-66
2023/03/28 11:42:59;;;;;;;;;;;;;;;20.84;34.52;101880.16;4923594;28;5472;-67
2023/03/28 11:45:36;;;;;;;;;;;;;;;20.72;34.41;101885.94;4937014;28;3524;-64
2023/03/28 11:48:17;;;;;;;;;;;;;;;20.62;35.33;101885.34;4928346;28;3160;-64
2023/03/28 11:50:52;;;;;;;;;;;;;;;20.51;35.80;101876.03;4954401;28;5819;-64
2023/03/28 11:53:43;;;;;;;;;;;;;;;20.49;35.49;101873.03;4940165;28;3049;-64
2023/03/28 11:56:12;;;;;;;;;;;;;;;20.71;35.94;101876.56;4936504;28;3236;-64
2023/03/28 11:58:57;;;;;;;;;;;;;;;20.99;35.26;101864.50;4925032;28;3265;-63
2023/03/28 12:01:25;;;;;;;;;;;;;;;21.11;34.93;101865.22;4937957;28;3142;-65
2023/03/28 12:04:03;;;;;;;;;;;;;;;21.11;34.66;101871.00;4943191;28;3171;-62
2023/03/28 12:06:41;;;;;;;;;;;;;;;21.16;34.46;101857.56;4939432;28;3332;-63
2023/03/28 12:09:27;;;;;;;;;;;;;;;21.18;34.68;101864.19;4926502;28;3069;-62
2023/03/28 12:11:55;;;;;;;;;;;;;;;21.15;34.20;101864.72;4945140;28;3094;-63
2023/03/28 12:14:35;;;;;;;;;;;;;;;21.17;34.02;101868.47;4926533;28;3463;-64
2023/03/28 12:17:14;;;;;;;;;;;;;;;21.17;34.15;101874.22;4945978;28;3052;-63
2023/03/28 12:19:41;;;;;;;;;;;;;;;21.20;34.07;101864.31;4946465;28;2780;-61
2023/03/28 12:22:29;;;;;;;;;;;;;;;21.37;34.32;101863.13;4941943;28;3329;-62
2023/03/28 12:25:00;;;;;;;;;;;;;;;21.37;34.22;101868.16;4933657;28;3096;-61
2023/03/28 12:27:41;;;;;;;;;;;;;;;21.22;33.99;101870.22;4937896;28;3154;-69
2023/03/28 12:30:19;;;;;;;;;;;;;;;20.77;34.04;101879.03;4934837;28;3119;-66
2023/03/28 12:32:50;;;;;;;;;;;;;;;20.79;34.57;101864.78;4924154;28;3276;-68
2023/03/28 12:35:41;;;;;;;;;;;;;;;20.96;33.88;101860.75;4935799;28;3165;-66
2023/03/28 12:38:16;;;;;;;;;;;;;;;20.32;29.21;101861.91;4957609;28;3247;-69
2023/03/28 12:40:50;;;;;;;;;;;;;;;20.59;30.80;101861.44;4935123;28;5129;-66
2023/03/28 12:43:21;;;;;;;;;;;;;;;21.20;32.69;101861.44;4942702;28;3115;-71
2023/03/28 12:45:51;;;;;;;;;;;;;;;21.47;32.98;101852.25;4942075;28;3692;-68
2023/03/28 12:48:28;;;;;;;;;;;;;;;21.59;34.65;101860.81;4921987;28;3632;-68
2023/03/28 12:50:55;;;;;;;;;;;;;;;21.64;34.70;101858.94;4940068;28;5299;-61
2023/03/28 12:53:23;;;;;;;;;;;;;;;21.65;35.84;101852.53;4962748;28;3229;-63
2023/03/28 12:55:50;;;;;;;;;;;;;;;21.67;36.02;101857.66;4964097;28;2762;-67
2023/03/28 12:58:22;;;;;;;;;;;;;;;21.71;36.69;101867.28;4946451;28;3139;-64
2023/03/28 13:01:07;;;;;;;;;;;;;;;21.57;36.92;101863.59;4957861;28;3460;-68
2023/03/28 13:03:42;;;;;;;;;;;;;;;21.43;36.68;101854.13;4958033;28;5255;-66
2023/03/28 13:06:17;;;;;;;;;;;;;;;21.38;37.77;101858.16;4949855;28;3689;-70
2023/03/28 13:09:07;;;;;;;;;;;;;;;21.36;38.01;101863.78;4945054;28;3051;-70
2023/03/28 13:11:36;;;;;;;;;;;;;;;21.70;38.12;101859.28;4940878;28;3156;-67
2023/03/28 13:14:06;;;;;;;;;;;;;;;21.80;38.06;101854.06;4950115;28;3015;-66
2023/03/28 13:16:41;;;;;;;;;;;;;;;21.90;38.00;101865.44;4941068;28;3080;-65
2023/03/28 13:19:08;;;;;;;;;;;;;;;21.93;38.33;101861.28;4948843;28;2856;-66
2023/03/28 13:21:45;;;;;;;;;;;;;;;21.95;38.13;101852.75;4951848;28;3142;-68